Time;durP1;ratioP1;P1;durP2;ratioP2;P2;SDS_P1;SDS_P2;PMS_P1;PMS_P2;Temp;Humidity;BMP_temperature;BMP_pressure;BME280_temperature;BME280_humidity;BME280_pressure;Samples;Min_cycle;Max_cycle;Signal;HPM_P1;HPM_P2
2022/06/14 00:01:10;;;;;;;8.00;1.90;;;;;;;11.89;92.21;101370.41;8222349;28;20120;-63
2022/06/14 00:05:10;;;;;;;9.18;1.90;;;;;;;12.08;91.11;101364.31;8223839;28;20058;-63
2022/06/14 00:09:11;;;;;;;6.20;1.58;;;;;;;11.77;93.54;101374.16;8224109;28;20050;-63
2022/06/14 00:13:11;;;;;;;6.25;1.60;;;;;;;11.58;94.59;101371.22;8223968;28;20125;-63
2022/06/14 00:17:12;;;;;;;8.63;1.90;;;;;;;11.66;94.72;101379.63;8224029;28;20047;-63
2022/06/14 00:21:13;;;;;;;12.93;1.85;;;;;;;11.78;92.63;101384.00;8223503;28;20047;-63
2022/06/14 00:25:24;;;;;;;12.77;2.05;;;;;;;11.68;93.23;101387.56;8224030;28;20134;-63
2022/06/14 00:29:25;;;;;;;8.90;1.83;;;;;;;11.43;94.15;101379.72;8217197;28;20149;-63
2022/06/14 00:33:25;;;;;;;5.72;2.05;;;;;;;11.38;94.88;101369.25;8223048;28;20046;-63
2022/06/14 00:37:26;;;;;;;10.18;2.38;;;;;;;11.40;94.22;101372.72;8223589;28;20411;-63
2022/06/14 00:49:57;;;;;;;7.20;2.30;;;;;;;11.54;93.71;101358.91;8350833;27;20362;-62
2022/06/14 00:58:16;;;;;;;8.63;2.10;;;;;;;11.13;95.61;101363.28;8397067;27;20797;-62
2022/06/14 01:02:23;;;;;;;8.25;2.15;;;;;;;10.60;99.20;101347.72;8417542;28;20379;-62
2022/06/14 01:07:01;;;;;;;5.28;1.90;;;;;;;10.75;98.63;101352.81;8416788;28;20051;-62
2022/06/14 01:11:06;;;;;;;4.55;1.63;;;;;;;11.08;97.38;101349.25;8373944;28;20457;-62
2022/06/14 01:15:15;;;;;;;10.90;2.58;;;;;;;11.11;98.12;101341.75;8386652;28;20151;-62
2022/06/14 01:19:22;;;;;;;6.38;2.13;;;;;;;11.10;95.02;101348.13;8381203;28;20051;-62
2022/06/14 01:23:23;;;;;;;5.07;1.75;;;;;;;10.70;99.07;101338.78;8388948;28;20028;-62
2022/06/14 01:27:25;;;;;;;6.18;2.35;;;;;;;10.52;100.00;101340.22;8416793;28;20527;-62
2022/06/14 01:31:29;;;;;;;7.10;1.85;;;;;;;10.41;100.00;101348.31;8416510;28;20039;-62
2022/06/14 01:35:35;;;;;;;5.72;1.75;;;;;;;10.50;100.00;101339.50;8388306;28;20041;-62
2022/06/14 01:39:37;;;;;;;4.82;1.45;;;;;;;10.51;100.00;101333.09;8412792;28;20427;-62
2022/06/14 01:44:10;;;;;;;9.95;2.03;;;;;;;10.16;100.00;101337.69;8415567;28;20044;-62
2022/06/14 01:48:39;;;;;;;12.60;1.90;;;;;;;10.18;100.00;101330.31;8414945;28;20032;-62
2022/06/14 01:53:00;;;;;;;8.05;1.98;;;;;;;10.25;100.00;101336.97;8376005;27;20065;-62
2022/06/14 01:57:18;;;;;;;5.90;1.70;;;;;;;10.29;100.00;101343.88;8352858;28;20196;-62
2022/06/14 02:01:58;;;;;;;7.25;1.90;;;;;;;10.05;100.00;101340.31;8374738;28;20037;-62
2022/06/14 02:06:09;;;;;;;4.25;2.10;;;;;;;10.09;100.00;101339.13;8365288;28;20465;-62
2022/06/14 02:10:33;;;;;;;8.57;2.33;;;;;;;10.10;100.00;101343.56;8328000;28;20167;-62
2022/06/14 02:14:40;;;;;;;9.53;2.33;;;;;;;9.85;100.00;101338.25;8361975;28;20536;-62
2022/06/14 02:19:06;;;;;;;8.13;3.00;;;;;;;9.67;100.00;101340.50;8330243;28;20708;-62
2022/06/14 02:23:08;;;;;;;6.80;2.40;;;;;;;9.58;100.00;101335.78;8360004;28;20029;-62
2022/06/14 02:27:19;;;;;;;8.70;2.85;;;;;;;9.86;100.00;101321.09;8361304;28;20456;-62
2022/06/14 02:31:26;;;;;;;11.18;2.60;;;;;;;10.00;99.46;101326.28;8378098;28;20094;-62
2022/06/14 02:35:36;;;;;;;8.50;2.65;;;;;;;9.92;99.89;101324.16;8360853;28;20039;-62
2022/06/14 02:39:43;;;;;;;10.52;3.03;;;;;;;10.24;99.89;101332.53;8354527;28;20044;-62
2022/06/14 02:43:50;;;;;;;11.50;2.67;;;;;;;10.23;99.17;101317.31;8368765;28;20127;-62
2022/06/14 02:48:02;;;;;;;8.65;3.13;;;;;;;10.04;99.87;101322.38;8357657;28;20090;-62
2022/06/14 02:52:11;;;;;;;7.28;2.50;;;;;;;9.92;100.00;101316.06;8367966;28;20025;-62
2022/06/14 02:56:22;;;;;;;7.90;3.13;;;;;;;9.67;100.00;101309.97;8358530;28;20049;-62
2022/06/14 03:00:28;;;;;;;5.93;2.78;;;;;;;9.37;100.00;101310.38;8353552;28;20036;-62
2022/06/14 03:04:35;;;;;;;9.63;3.25;;;;;;;9.52;100.00;101313.81;8356869;28;20141;-62
2022/06/14 03:08:59;;;;;;;9.20;3.10;;;;;;;9.69;100.00;101310.69;8359221;28;20498;-62
2022/06/14 03:13:11;;;;;;;7.18;3.03;;;;;;;9.81;100.00;101315.16;8345746;28;20033;-62
2022/06/14 03:17:51;;;;;;;9.05;2.80;;;;;;;9.37;100.00;101325.75;8359178;28;20033;-62
2022/06/14 03:21:59;;;;;;;7.22;2.80;;;;;;;9.44;100.00;101321.59;8369250;28;20402;-62
2022/06/14 03:26:07;;;;;;;15.25;2.67;;;;;;;9.54;100.00;101317.22;8353281;28;20509;-62
2022/06/14 03:30:31;;;;;;;11.00;3.22;;;;;;;9.46;100.00;101308.84;8357170;28;20115;-62
2022/06/14 03:34:41;;;;;;;10.32;2.88;;;;;;;9.66;100.00;101305.50;8348397;28;20041;-62
2022/06/14 03:38:50;;;;;;;13.63;3.30;;;;;;;9.72;100.00;101310.44;8360173;28;20048;-62
2022/06/14 03:42:51;;;;;;;6.60;3.15;;;;;;;9.56;100.00;101307.19;8358110;28;20032;-63
2022/06/14 03:47:15;;;;;;;8.23;2.72;;;;;;;9.49;100.00;101308.63;8344793;28;20047;-63
2022/06/14 03:51:55;;;;;;;6.67;3.67;;;;;;;9.48;100.00;101306.88;8370470;28;20041;-63
2022/06/14 03:56:25;;;;;;;13.60;4.05;;;;;;;9.65;100.00;101309.19;8351145;28;20060;-63
2022/06/14 04:00:46;;;;;;;12.18;4.10;;;;;;;9.74;100.00;101311.22;8334946;28;20048;-63
2022/06/14 04:05:02;;;;;;;8.57;3.35;;;;;;;9.68;100.00;101320.66;8332903;28;20440;-63
2022/06/14 04:09:42;;;;;;;5.55;3.13;;;;;;;9.63;100.00;101311.16;8326313;28;20038;-63
2022/06/14 04:14:09;;;;;;;8.10;3.35;;;;;;;10.12;100.00;101317.25;8354323;28;20178;-63
2022/06/14 04:18:54;;;;;;;8.57;3.45;;;;;;;10.09;100.00;101304.00;8350586;28;20098;-63
2022/06/14 04:23:05;;;;;;;10.20;3.40;;;;;;;10.09;100.00;101309.41;8328874;28;20047;-63
2022/06/14 04:27:19;;;;;;;6.70;3.25;;;;;;;10.25;100.00;101309.97;8350501;28;20060;-63
2022/06/14 04:36:06;;;;;;;11.30;3.13;;;;;;;10.95;99.69;101319.59;8394974;27;20842;-63
2022/06/14 04:40:13;;;;;;;11.77;2.97;;;;;;;11.23;99.53;101310.13;8377082;28;20511;-63
2022/06/14 04:44:21;;;;;;;7.57;2.72;;;;;;;11.73;97.44;101315.81;8375938;28;20044;-63
2022/06/14 04:48:29;;;;;;;10.38;2.92;;;;;;;11.98;94.56;101319.16;8374973;28;20074;-63
2022/06/14 04:52:37;;;;;;;6.38;2.92;;;;;;;12.03;95.16;101312.34;8376057;28;20059;-63
2022/06/14 04:56:45;;;;;;;12.10;2.80;;;;;;;11.93;95.75;101317.69;8380151;28;20451;-63
2022/06/14 05:00:52;;;;;;;5.53;2.88;;;;;;;12.37;94.03;101326.56;8378981;28;20048;-64
2022/06/14 05:04:58;;;;;;;9.65;3.67;;;;;;;12.58;92.15;101317.44;8379926;28;20037;-64
2022/06/14 05:09:04;;;;;;;9.32;3.47;;;;;;;12.87;89.57;101318.44;8378796;28;20041;-64
2022/06/14 05:13:15;;;;;;;11.05;4.13;;;;;;;12.67;92.65;101318.47;8380011;28;20389;-64
2022/06/14 05:17:37;;;;;;;18.95;5.00;;;;;;;12.89;91.69;101324.59;8380412;28;20029;-64
2022/06/14 05:21:51;;;;;;;21.52;5.38;;;;;;;13.09;91.41;101331.00;8379966;28;20082;-64
2022/06/14 05:26:31;;;;;;;22.10;4.37;;;;;;;13.44;90.01;101331.41;8380396;28;20519;-64
2022/06/14 05:30:58;;;;;;;18.25;4.65;;;;;;;13.39;89.96;101325.56;8375370;28;20285;-64
2022/06/14 05:35:38;;;;;;;14.93;4.50;;;;;;;13.81;90.46;101318.88;8375266;28;20049;-64
2022/06/14 05:39:54;;;;;;;16.23;4.35;;;;;;;14.37;88.02;101319.94;8377111;28;20386;-64
2022/06/14 05:44:04;;;;;;;24.33;5.18;;;;;;;15.05;83.68;101308.69;8344553;28;20041;-64
2022/06/14 05:48:09;;;;;;;17.63;3.58;;;;;;;14.97;82.45;101316.75;8327887;28;20701;-64
2022/06/14 05:52:14;;;;;;;;;;;;;;;15.07;84.17;101323.00;8343387;28;20037;-64
2022/06/14 05:56:31;;;;;;;10.48;3.60;;;;;;;15.30;81.55;101324.34;8354406;28;19920;-64
2022/06/14 06:00:40;;;;;;;8.15;3.80;;;;;;;15.11;81.58;101318.13;8352850;28;20466;-64
2022/06/14 06:04:55;;;;;;;12.38;3.83;;;;;;;15.55;78.74;101326.38;8355912;28;20102;-64
2022/06/14 06:09:03;;;;;;;11.80;3.60;;;;;;;15.90;78.61;101317.38;8350869;28;20116;-64
2022/06/14 06:13:10;;;;;;;10.57;3.75;;;;;;;16.20;74.79;101318.84;8355318;28;20297;-64
2022/06/14 06:17:34;;;;;;;11.60;4.30;;;;;;;16.44;75.96;101332.75;8356667;28;20620;-64
2022/06/14 06:25:52;;;;;;;13.25;3.33;;;;;;;16.47;74.13;101335.16;8316535;27;20393;-62
2022/06/14 06:29:59;;;;;;;13.23;3.83;;;;;;;16.22;75.39;101338.66;8314704;28;20053;-62
2022/06/14 06:34:04;;;;;;;20.00;4.90;;;;;;;16.45;73.60;101331.72;8315484;28;20034;-62
2022/06/14 06:38:38;;;;;;;15.68;4.18;;;;;;;16.83;72.86;101339.50;8314849;28;20037;-62
2022/06/14 06:42:45;;;;;;;19.60;5.50;;;;;;;17.15;72.98;101337.84;8309951;28;20066;-63
2022/06/14 06:46:56;;;;;;;16.90;4.63;;;;;;;17.59;70.16;101341.28;8313652;28;20464;-63
2022/06/14 06:51:02;;;;;;;19.63;6.22;;;;;;;17.44;71.30;101340.22;8305242;28;20036;-63
2022/06/14 06:55:10;;;;;;;17.48;5.50;;;;;;;17.77;70.01;101339.31;8313869;28;20033;-63
2022/06/14 06:59:31;;;;;;;17.30;4.65;;;;;;;17.90;68.21;101326.00;8314071;28;20839;-63
2022/06/14 07:03:59;;;;;;;25.90;4.53;;;;;;;18.58;68.73;101332.94;8313883;28;20029;-63
2022/06/14 07:08:07;;;;;;;21.42;4.45;;;;;;;18.55;69.18;101333.28;8306029;28;20514;-63
2022/06/14 07:12:16;;;;;;;18.77;4.55;;;;;;;18.56;67.13;101332.25;8310957;28;20029;-63
2022/06/14 07:16:28;;;;;;;25.42;4.50;;;;;;;18.33;66.58;101322.94;8312634;28;20030;-63
2022/06/14 07:21:04;;;;;;;20.55;3.25;;;;;;;18.30;69.74;101334.25;8313008;28;20041;-63
2022/06/14 07:25:12;;;;;;;12.50;3.10;;;;;;;18.04;66.60;101333.56;8311956;28;20048;-63
2022/06/14 07:29:44;;;;;;;25.55;3.60;;;;;;;18.53;65.92;101332.59;8312487;28;20468;-63
2022/06/14 07:33:44;;;;;;;10.98;2.40;;;;;;;18.56;65.02;101329.50;8307311;28;20041;-63
2022/06/14 07:37:53;;;;;;;10.38;2.75;;;;;;;19.65;66.39;101327.84;8290269;28;20042;-63
2022/06/14 07:42:04;;;;;;;9.82;1.83;;;;;;;19.71;59.73;101327.13;8289656;28;20042;-63
2022/06/14 07:46:11;;;;;;;17.55;1.90;;;;;;;20.00;60.21;101332.78;8288478;28;20084;-63
2022/06/14 07:50:16;;;;;;;12.57;2.45;;;;;;;20.06;61.09;101332.91;8290395;28;20045;-63
2022/06/14 07:54:28;;;;;;;13.85;3.13;;;;;;;19.52;61.31;101324.81;8289671;28;20085;-63
2022/06/14 07:58:37;;;;;;;12.13;2.45;;;;;;;19.47;61.18;101319.88;8288078;28;20445;-63
2022/06/14 08:02:40;;;;;;;9.73;2.20;;;;;;;19.63;60.62;101318.91;8289283;28;20038;-63
2022/06/14 08:06:47;;;;;;;9.45;2.35;;;;;;;19.23;60.00;101315.31;8289894;28;20140;-64
2022/06/14 08:10:53;;;;;;;8.98;2.08;;;;;;;19.62;60.74;101319.97;8289681;28;20104;-64
2022/06/14 08:14:58;;;;;;;6.82;2.13;;;;;;;19.59;59.33;101317.56;8286961;28;20042;-64
2022/06/14 08:19:11;;;;;;;12.32;1.88;;;;;;;20.06;59.30;101316.44;8286702;28;20405;-64
2022/06/14 08:23:25;;;;;;;11.00;2.03;;;;;;;20.36;59.40;101317.44;8289084;28;20447;-64
2022/06/14 08:27:34;;;;;;;11.45;2.75;;;;;;;20.23;58.58;101317.19;8287572;28;20037;-64
2022/06/14 08:31:41;;;;;;;10.05;3.17;;;;;;;20.34;58.38;101303.03;8289822;28;20083;-64
2022/06/14 08:35:53;;;;;;;8.70;2.60;;;;;;;20.40;60.91;101302.31;8287535;28;20042;-64
2022/06/14 08:40:02;;;;;;;7.78;2.63;;;;;;;20.26;59.75;101303.09;8289371;28;20034;-64
2022/06/14 08:44:09;;;;;;;11.50;2.78;;;;;;;20.79;59.19;101291.94;8289229;28;20514;-64
2022/06/14 08:48:49;;;;;;;13.27;2.65;;;;;;;21.26;58.31;101289.75;8288478;28;20038;-64
2022/06/14 08:53:12;;;;;;;10.45;2.72;;;;;;;21.12;57.21;101282.34;8289813;28;20061;-64
2022/06/14 09:02:14;;;;;;;12.98;3.13;;;;;;;20.88;56.35;101264.19;8268958;27;1429303;-62
2022/06/14 09:06:45;;;;;;;16.48;3.28;;;;;;;21.30;56.06;101258.03;8274276;28;20129;-62
2022/06/14 09:11:25;;;;;;;10.35;2.75;;;;;;;21.26;58.31;101249.31;8219880;28;20120;-62
2022/06/14 09:15:56;;;;;;;12.15;2.75;;;;;;;21.37;54.65;101252.63;8324611;28;20433;-63
2022/06/14 09:20:26;;;;;;;7.38;2.30;;;;;;;22.11;55.68;101258.56;8323106;28;20044;-63
2022/06/14 09:24:52;;;;;;;12.13;2.60;;;;;;;22.31;54.10;101253.25;8341131;28;20494;-63
2022/06/14 09:29:19;;;;;;;10.35;3.05;;;;;;;21.48;57.57;101261.25;8340804;28;20037;-63
2022/06/14 09:33:59;;;;;;;9.27;2.40;;;;;;;21.86;54.90;101254.50;8344295;28;20186;-63
2022/06/14 09:38:39;;;;;;;9.43;2.25;;;;;;;22.30;56.28;101257.06;8344211;28;20041;-63
2022/06/14 09:42:55;;;;;;;8.93;1.95;;;;;;;22.62;53.80;101254.59;8345600;28;20461;-63
2022/06/14 09:47:35;;;;;;;6.18;1.60;;;;;;;23.14;52.77;101252.19;8346041;28;20037;-63
2022/06/14 09:52:15;;;;;;;8.20;2.20;;;;;;;23.48;52.67;101247.69;8353424;28;20033;-63
2022/06/14 10:00:59;;;;;;;10.13;2.10;;;;;;;24.23;48.52;101251.09;8391839;27;20787;-63
2022/06/14 10:05:40;;;;;;;11.00;1.63;;;;;;;25.69;46.58;101244.88;8378830;28;20037;-63
2022/06/14 10:10:19;;;;;;;10.73;2.25;;;;;;;26.16;46.27;101249.06;8371824;28;20885;-63
2022/06/14 10:14:28;;;;;;;9.00;3.22;;;;;;;26.44;45.28;101236.47;8367345;28;20378;-63
2022/06/14 10:18:52;;;;;;;6.97;2.25;;;;;;;28.51;46.01;101236.03;8378599;28;20033;-63
2022/06/14 10:32:10;;;;;;;7.53;2.65;;;;;;;28.85;40.16;101229.66;8408629;27;20753;-62
2022/06/14 10:40:57;;;;;;;6.75;2.10;;;;;;;28.68;41.93;101214.75;8320264;27;20407;-62
2022/06/14 10:50:02;;;;;;;14.43;2.80;;;;;;;31.32;38.61;101214.53;8319197;27;20364;-62
2022/06/14 10:54:27;;;;;;;10.43;2.42;;;;;;;30.94;38.03;101205.31;8279351;28;20049;-62
2022/06/14 10:59:08;;;;;;;7.70;2.30;;;;;;;28.83;38.73;101201.19;8281099;28;20030;-62
2022/06/14 11:03:25;;;;;;;6.22;2.03;;;;;;;30.55;39.16;101195.19;8312303;28;20081;-63
2022/06/14 11:08:05;;;;;;;4.95;1.92;;;;;;;30.26;37.41;101200.03;8312895;28;20398;-62
2022/06/14 11:12:37;;;;;;;15.65;2.78;;;;;;;30.68;38.82;101186.47;8310078;28;20329;-63
2022/06/14 11:17:02;;;;;;;7.15;1.77;;;;;;;29.83;38.69;101183.88;8311899;28;20108;-63
2022/06/14 11:21:20;;;;;;;7.00;1.77;;;;;;;28.97;39.63;101173.94;8282002;28;20046;-62
2022/06/14 11:25:45;;;;;;;11.68;2.38;;;;;;;28.53;40.48;101167.06;8279794;28;20533;-62
2022/06/14 11:30:02;;;;;;;8.05;1.92;;;;;;;28.79;39.72;101155.44;8279597;28;20542;-62
2022/06/14 11:34:42;;;;;;;7.82;3.03;;;;;;;28.92;39.46;101155.19;8309145;28;20030;-62
2022/06/14 11:39:13;;;;;;;6.90;1.90;;;;;;;30.05;40.66;101147.72;8308421;28;20053;-62
2022/06/14 11:43:32;;;;;;;8.70;2.10;;;;;;;29.82;38.96;101136.72;8306975;28;20388;-62
2022/06/14 11:48:12;;;;;;;6.35;2.22;;;;;;;28.74;39.06;101141.41;8311670;28;20030;-62
2022/06/14 11:52:38;;;;;;;9.55;2.63;;;;;;;28.39;41.05;101146.13;8311569;28;20113;-62
2022/06/14 11:57:09;;;;;;;10.57;2.30;;;;;;;29.50;38.95;101130.78;8312102;28;20049;-62
2022/06/14 12:01:43;;;;;;;11.70;2.75;;;;;;;29.68;39.00;101127.84;8288290;28;20045;-62
2022/06/14 12:05:55;;;;;;;9.55;2.75;;;;;;;28.83;40.09;101131.59;8256626;28;20039;-62
2022/06/14 12:10:31;;;;;;;9.35;2.45;;;;;;;27.94;40.41;101128.28;8287305;28;20176;-62
2022/06/14 12:15:00;;;;;;;7.78;2.20;;;;;;;25.55;45.74;101129.66;8281757;28;20482;-62
2022/06/14 12:19:08;;;;;;;8.40;2.67;;;;;;;24.59;47.18;101121.53;8289445;28;20030;-62
2022/06/14 12:23:15;;;;;;;5.75;2.60;;;;;;;23.39;47.96;101117.28;8288992;28;20333;-62
2022/06/14 12:27:19;;;;;;;10.10;2.53;;;;;;;22.90;49.98;101109.25;8288918;28;20038;-62
2022/06/14 12:32:00;;;;;;;9.48;2.90;;;;;;;22.84;50.59;101107.31;8289337;28;20038;-62
2022/06/14 12:36:31;;;;;;;12.07;2.65;;;;;;;23.16;50.42;101101.09;8299094;28;20060;-62
2022/06/14 12:40:59;;;;;;;9.48;2.70;;;;;;;22.60;49.57;101094.03;8287914;28;20402;-62
2022/06/14 12:45:06;;;;;;;8.85;2.63;;;;;;;22.64;50.28;101078.81;8294098;28;20462;-62
2022/06/14 12:54:00;;;;;;;5.15;1.98;;;;;;;22.76;49.18;101081.84;8394449;27;20389;-62
2022/06/14 12:58:13;;;;;;;6.22;2.38;;;;;;;22.61;49.33;101073.72;8384397;27;20434;-62
2022/06/14 13:02:37;;;;;;;8.15;2.33;;;;;;;22.54;49.61;101072.81;8378512;28;20057;-62
2022/06/14 13:07:05;;;;;;;6.25;1.88;;;;;;;22.66;49.81;101054.63;8374733;28;20522;-62
2022/06/14 13:11:22;;;;;;;9.65;2.08;;;;;;;22.41;48.43;101050.66;8375859;28;20029;-63
2022/06/14 13:15:56;;;;;;;5.95;1.90;;;;;;;22.75;50.17;101050.63;8386165;28;20513;-62
2022/06/14 13:20:05;;;;;;;;;;;;;;;22.76;49.92;101044.09;8406361;28;20481;-63
2022/06/14 13:29:13;;;;;;;8.48;2.33;;;;;;;23.03;48.70;101039.50;8387588;27;20401;-63
2022/06/14 13:33:53;;;;;;;4.30;1.70;;;;;;;22.99;47.60;101044.56;8369750;28;20105;-63
2022/06/14 13:38:00;;;;;;;11.27;2.17;;;;;;;22.94;48.25;101029.72;8369886;28;20066;-63
2022/06/14 13:42:09;;;;;;;3.63;1.52;;;;;;;23.54;49.71;101031.53;8370802;28;20047;-63
2022/06/14 13:50:44;;;;;;;7.32;1.55;;;;;;;23.23;48.79;101022.97;8379886;27;20381;-62
2022/06/14 13:54:56;;;;;;;5.65;1.40;;;;;;;23.38;48.31;101007.09;8335165;28;20029;-62
2022/06/14 13:59:10;;;;;;;5.90;1.70;;;;;;;23.65;48.05;101006.03;8335292;28;20037;-63
2022/06/14 14:07:54;;;;;;;7.50;1.77;;;;;;;23.77;47.14;101001.56;8319676;27;20454;-62
2022/06/14 14:12:17;;;;;;;6.38;1.60;;;;;;;23.66;47.03;100997.53;8306921;28;20121;-62
2022/06/14 14:16:38;;;;;;;5.60;1.33;;;;;;;23.62;46.90;100990.75;8303141;28;20771;-64
2022/06/14 14:20:53;;;;;;;6.47;1.60;;;;;;;23.66;51.69;100985.66;8303553;28;20060;-63
2022/06/14 14:25:19;;;;;;;5.13;1.65;;;;;;;23.79;47.53;100978.19;8305727;28;20124;-63
2022/06/14 14:29:28;;;;;;;5.45;1.80;;;;;;;23.61;47.43;100974.38;8301719;28;20123;-63
2022/06/14 14:33:53;;;;;;;7.07;1.50;;;;;;;24.00;48.15;100971.59;8305328;28;20040;-63
2022/06/14 14:38:01;;;;;;;7.88;1.80;;;;;;;23.93;47.54;100976.22;8306147;28;20042;-63
2022/06/14 14:42:18;;;;;;;12.23;1.38;;;;;;;23.62;48.66;100970.56;8306817;28;20133;-63
2022/06/14 14:46:32;;;;;;;8.63;1.50;;;;;;;23.76;47.77;100969.50;8306262;28;20059;-63
2022/06/14 14:50:58;;;;;;;3.63;1.63;;;;;;;23.79;46.74;100960.78;8303745;28;20065;-63
2022/06/14 15:08:16;;;;;;;5.82;1.45;;;;;;;23.51;47.56;100954.66;8363864;28;20059;-63
2022/06/14 15:12:24;;;;;;;12.07;2.03;;;;;;;23.77;48.53;100949.09;8367968;28;20074;-63
2022/06/14 15:16:29;;;;;;;4.15;1.40;;;;;;;23.95;48.12;100941.00;8358726;28;20048;-63
2022/06/14 15:20:36;;;;;;;5.15;1.20;;;;;;;24.05;47.52;100935.84;8358865;28;20048;-63
2022/06/14 15:24:37;;;;;;;9.63;1.60;;;;;;;24.03;49.47;100932.47;8366734;28;20044;-63
2022/06/14 15:28:48;;;;;;;7.70;1.52;;;;;;;23.85;48.11;100930.34;8357090;28;20076;-63
2022/06/14 15:32:52;;;;;;;4.43;1.50;;;;;;;23.66;48.03;100922.16;8336200;28;20037;-63
2022/06/14 15:36:54;;;;;;;;;;;;;;;23.62;49.50;100907.06;8329558;28;20091;-63
2022/06/14 15:41:02;;;;;;;5.03;1.77;;;;;;;23.67;49.35;100899.84;8331028;28;19921;-63
2022/06/14 15:45:30;;;;;;;6.68;1.55;;;;;;;23.86;49.19;100903.59;8358411;28;20029;-62
2022/06/14 15:53:49;;;;;;;6.68;1.50;;;;;;;23.83;48.81;100898.50;8317880;27;20436;-62
2022/06/14 15:58:13;;;;;;;6.53;1.95;;;;;;;23.75;48.58;100888.53;8304419;28;20033;-63
2022/06/14 16:02:29;;;;;;;5.90;1.73;;;;;;;23.79;49.31;100880.69;8309453;28;20072;-62
2022/06/14 16:06:35;;;;;;;5.25;1.90;;;;;;;23.92;49.38;100878.72;8302010;28;20042;-62
2022/06/14 16:10:41;;;;;;;8.90;1.60;;;;;;;23.87;49.41;100875.75;8303859;28;20574;-62
2022/06/14 16:14:48;;;;;;;9.88;2.30;;;;;;;23.78;49.09;100879.00;8302784;28;20045;-64
2022/06/14 16:18:50;;;;;;;6.68;1.90;;;;;;;23.71;48.95;100872.63;8301437;28;20033;-62
2022/06/14 16:23:00;;;;;;;6.03;2.10;;;;;;;23.58;48.85;100865.25;8297510;28;20576;-62
2022/06/14 16:27:29;;;;;;;6.53;1.77;;;;;;;23.63;48.94;100862.66;8293628;28;20137;-65
2022/06/14 16:31:38;;;;;;;7.45;2.00;;;;;;;23.60;49.14;100856.75;8294985;28;20628;-62
2022/06/14 16:35:47;;;;;;;6.05;1.70;;;;;;;23.75;48.68;100847.13;8301459;28;20240;-62
2022/06/14 16:40:13;;;;;;;4.50;1.52;;;;;;;23.82;49.38;100842.41;8302007;28;20602;-63
2022/06/14 16:44:48;;;;;;;4.05;1.70;;;;;;;23.91;49.16;100852.16;8302581;28;20430;-63
2022/06/14 16:53:17;;;;;;;5.75;1.60;;;;;;;23.64;49.35;100838.66;8397720;27;20429;-62
2022/06/14 16:57:26;;;;;;;6.18;1.40;;;;;;;23.55;50.60;100829.78;8332348;28;20086;-62
2022/06/14 17:01:40;;;;;;;5.00;1.63;;;;;;;23.61;49.92;100836.34;8333954;28;20239;-62
2022/06/14 17:06:21;;;;;;;3.50;1.35;;;;;;;23.51;48.96;100834.03;8326384;28;20389;-63
2022/06/14 17:10:43;;;;;;;5.78;1.52;;;;;;;23.65;48.63;100835.69;8327782;28;20099;-62
2022/06/14 17:14:58;;;;;;;6.85;1.58;;;;;;;23.65;49.21;100834.84;8333720;28;20087;-62
2022/06/14 17:19:20;;;;;;;5.10;1.67;;;;;;;23.43;49.82;100831.50;8333986;28;20492;-62
2022/06/14 17:24:00;;;;;;;4.22;1.48;;;;;;;23.38;49.53;100830.44;8344625;28;20456;-62
2022/06/14 17:32:29;;;;;;;6.13;1.88;;;;;;;23.48;49.26;100822.59;8363142;28;20491;-62
2022/06/14 17:36:40;;;;;;;6.57;1.33;;;;;;;23.39;49.52;100821.13;8366843;28;20110;-62
2022/06/14 17:40:45;;;;;;;4.72;1.60;;;;;;;23.41;49.23;100819.84;8367263;28;20385;-62
2022/06/14 17:44:58;;;;;;;6.05;1.88;;;;;;;23.36;48.84;100824.31;8363956;28;20044;-62
2022/06/14 17:49:28;;;;;;;7.53;1.60;;;;;;;23.47;50.13;100809.81;8366028;28;20041;-62
2022/06/14 17:54:08;;;;;;;7.20;1.60;;;;;;;23.50;49.28;100810.25;8359329;28;20222;-62
2022/06/14 17:58:37;;;;;;;6.53;1.63;;;;;;;23.47;49.00;100809.81;8363732;28;20049;-62
2022/06/14 18:02:59;;;;;;;5.45;1.55;;;;;;;23.49;49.40;100804.94;8351969;28;20546;-63
2022/06/14 18:07:01;;;;;;;3.65;1.17;;;;;;;23.36;48.86;100808.59;8329805;28;20463;-62
2022/06/14 18:15:22;;;;;;;3.35;1.77;;;;;;;23.35;49.35;100806.91;8382081;27;20395;-62
2022/06/14 18:21:02;;;;;;;5.13;1.75;;;;;;;23.46;49.32;100809.00;8347370;28;20089;-63
2022/06/14 18:23:54;;;;;;;4.28;1.48;;;;;;;23.31;49.77;100800.13;8363803;28;20048;-63
2022/06/14 18:27:58;;;;;;;6.07;1.33;;;;;;;23.23;48.58;100810.53;8362076;28;20087;-63
2022/06/14 18:36:14;;;;;;;4.57;1.25;;;;;;;23.12;50.06;100807.31;8312197;27;20395;-62
2022/06/14 18:44:30;;;;;;;6.57;1.63;;;;;;;22.82;50.79;100799.75;8369558;27;20361;-62
2022/06/14 18:48:35;;;;;;;6.55;3.20;;;;;;;22.70;51.27;100796.78;8367772;28;20056;-63
2022/06/14 18:52:39;;;;;;;4.30;1.38;;;;;;;22.66;50.95;100801.00;8368583;28;20048;-63
2022/06/14 18:56:47;;;;;;;4.53;1.38;;;;;;;22.56;51.40;100800.59;8367512;28;20033;-63
2022/06/14 19:23:36;;;;;;;7.30;1.58;;;;;;;21.85;51.77;100790.25;8396910;27;20471;-62
2022/06/14 19:27:53;;;;;;;3.83;1.40;;;;;;;21.60;52.97;100797.31;8394435;28;20040;-62
2022/06/14 19:32:05;;;;;;;6.03;1.58;;;;;;;21.27;55.50;100796.28;8396907;28;20174;-62
2022/06/14 19:36:08;;;;;;;8.07;1.77;;;;;;;21.12;55.48;100792.81;8395671;28;20040;-62
2022/06/14 19:40:14;;;;;;;5.97;2.03;;;;;;;20.94;56.34;100792.44;8393858;28;20094;-64
2022/06/14 19:44:26;;;;;;;7.40;2.13;;;;;;;20.84;57.11;100806.56;8394232;28;20040;-63
2022/06/14 19:52:53;;;;;;;5.10;2.08;;;;;;;20.68;58.04;100800.50;8397264;28;20476;-62
2022/06/14 19:56:54;;;;;;;6.85;1.92;;;;;;;20.56;58.23;100800.16;8396016;28;20043;-62
2022/06/14 20:01:07;;;;;;;6.90;2.22;;;;;;;20.59;58.16;100807.19;8393994;28;21150;-63
2022/06/14 20:05:09;;;;;;;8.50;2.75;;;;;;;20.28;61.28;100810.25;8392593;28;20440;-62
2022/06/14 20:09:21;;;;;;;5.95;2.10;;;;;;;20.16;60.17;100811.00;8396937;28;20032;-62
2022/06/14 20:13:23;;;;;;;5.53;2.08;;;;;;;20.11;61.39;100818.91;8399368;28;20177;-62
2022/06/14 20:17:33;;;;;;;6.32;2.65;;;;;;;20.02;61.41;100820.09;8392439;28;20553;-62
2022/06/14 20:21:36;;;;;;;9.65;2.45;;;;;;;19.69;62.82;100824.31;8397621;28;20052;-63
2022/06/14 20:25:37;;;;;;;7.80;2.45;;;;;;;19.59;63.82;100830.13;8396828;28;20047;-64
2022/06/14 20:29:45;;;;;;;7.45;2.55;;;;;;;19.63;63.70;100838.78;8402576;28;20504;-63
2022/06/14 20:33:48;;;;;;;8.20;2.92;;;;;;;19.60;64.18;100830.97;8381338;28;20381;-63
2022/06/14 20:37:52;;;;;;;5.90;2.65;;;;;;;19.45;64.63;100829.09;8381259;28;20044;-63
2022/06/14 20:41:53;;;;;;;8.88;2.55;;;;;;;19.14;66.67;100825.66;8381393;28;20447;-63
2022/06/14 20:45:54;;;;;;;11.23;2.65;;;;;;;19.32;65.95;100828.91;8377078;28;20045;-63
2022/06/14 20:49:55;;;;;;;9.82;2.75;;;;;;;19.41;64.74;100832.41;8363123;28;20048;-63
2022/06/14 20:53:56;;;;;;;7.82;2.88;;;;;;;19.41;64.55;100833.25;8380860;28;20040;-63
2022/06/14 20:57:57;;;;;;;8.85;2.75;;;;;;;19.40;64.67;100823.31;8380834;28;20067;-63
2022/06/14 21:01:58;;;;;;;11.68;3.22;;;;;;;19.32;64.80;100823.44;8381952;28;20036;-63
2022/06/14 21:06:01;;;;;;;10.38;3.70;;;;;;;19.20;65.74;100819.41;8372847;28;20171;-63
2022/06/14 21:11:21;;;;;;;12.25;3.47;;;;;;;19.17;65.70;100830.78;8367093;28;20040;-63
2022/06/14 21:14:45;;;;;;;7.45;3.92;;;;;;;19.14;65.87;100820.19;8372882;28;20740;-63
2022/06/14 21:18:48;;;;;;;12.73;4.22;;;;;;;19.16;65.81;100823.56;8381137;28;22335;-63
2022/06/14 21:22:51;;;;;;;11.82;3.78;;;;;;;19.11;65.89;100823.28;8383669;28;20046;-64
2022/06/14 21:27:10;;;;;;;12.30;3.85;;;;;;;18.82;68.32;100823.25;8381000;28;20035;-63
2022/06/14 21:31:17;;;;;;;7.00;3.42;;;;;;;18.65;68.52;100829.94;8382764;28;20530;-63
2022/06/14 21:35:21;;;;;;;9.25;4.20;;;;;;;18.24;71.10;100836.72;8393190;28;20048;-63
2022/06/14 21:39:32;;;;;;;;;;;;;;;17.65;73.56;100833.84;8378027;28;20048;-63
2022/06/14 21:43:49;;;;;;;9.75;3.83;;;;;;;17.70;73.50;100839.63;8390372;28;20364;-63
2022/06/14 21:47:50;;;;;;;8.70;5.07;;;;;;;17.04;78.25;100843.59;8378047;28;20434;-63
2022/06/14 21:51:54;;;;;;;8.57;4.53;;;;;;;17.04;78.56;100845.47;8379862;28;20036;-63
2022/06/14 21:55:59;;;;;;;7.95;4.75;;;;;;;17.11;77.29;100843.75;8358279;28;20029;-63